Williams Lake Airport
CYWL : now visible

Airfield :











YOU CAN JOIN US ON...

 
LOGIN :

Register | Disclaimer

   EN    FR    IT 

 









Legend :    VFR   Marginal VFR   IFR   Intensive IFR   Very Intensive IFR
Visi :
Ceiling :
>= 8 km
>= 3000ft
5 to 8 km
1000 to 3000 ft
1500m to 5 km
500 to 1000 ft
800 to 1500m
200 to 500 ft
< 800m
< 200 ft
Symbols :   Thunderstorms  Fog  Heavy snow  Heavy precipitations  Wind > 20 kt







- Airport Elevation : 3085 ft
- IATA code : YWL


CYWL - Williams Lake

CURRENT METAR :
  • 210400Z 12004KT 15SM FEW140 BKN240 10/04 A3004 RMK AC1CI6 SLP189 DENSITY ALT 3100FT

EXPIRED METARs :
  • 210300Z 10004KT 15SM FEW090 FEW130 BKN240 12/03 A3003 RMK AC1AC1CI5 AC TR SLP186 DENSITY ALT 3300FT
  • 210200Z 08002KT 15SM FEW090 FEW140 BKN240 13/04 A3004 RMK AC1AC1CI6 AC TR SLP187 DENSITY ALT 3500FT

TAF TAF CYWL
Valid from the 21 at 01:00 until the 21 at 13:00 UTC


210038Z 2101/2113 29005KT P6SM FEW050 SCT130 BKN240
TEMPO 2101/2105 BKN090
FM210500 11005KT P6SM BKN110
TEMPO 2105/2109 BKN080
FM210900 VRB03KT P6SM SCT080
TEMPO 2109/2111 BKN080 RMK NXT FCST BY 210700Z
No reported NOTAMs for that airfield.



MET'MAP, your aeronautical weather chart ! - Copyright ORBIFLY December 2007 - Disclaimer

ORBIFLY MET'MAP TEAM :

Programming & Development : Alexandra Zaïnal
Concept & Development : Baudouin d'Aumeries
Co-Development & Prog : Marc-Olivier Méhu
Technical & hardware support : Manuel Goepfert

Contact : metmap@orbifly.com




SOURCES & CREDITS :

   NOAA       Earth
Advisory